Alden, IL (60001)

8:58 AM CDT on September 03, 2015 (GMT -0500)
Cornfield | | Change Station
CLOSE
Current Station
Personal Weather Station
Location: Hebron, IL
Elevation: 965 ft
Nearby Weather Stations

Elev 965 ft 42.46 °N, 88.48 °W | Updated 21 seconds ago

Clear
Clear
74.7 °F
Feels Like 73 °F
N
5.0
Wind Variable Wind from SSW
Gusts 8.0 mph

Today
High -- | Low -- °F
--% Chance of Precip.
Yesterday
High -- | Low -- °F
Precip. -- in
6:21 AM 7:25 PM
Waning Gibbous, 70% visible
Pressure 29.94 in
Visibility 10.0 miles
Clouds Clear
Heat Index 73 °F
Dew Point 72 °F
Humidity 91%
Rainfall 0.00 in
Snow Depth Not available.
UV 1.4 out of 12
Pollen 6.50 out of 12
Air Quality Not available.
Flu Activity Not available.
METAR KBUU 031335Z AUTO 24007KT 10SM CLR 23/20 A2994 RMK AO2 T02340200
Pressure 29.94 in
Visibility 10.0 miles
Clouds Clear
Heat Index 73 °F
Dew Point 72 °F
Humidity 91%
Rainfall 0.00 in
Snow Depth Not available.
UV 1.4 out of 12
Pollen 6.50 out of 12
Air Quality Not available.
Flu Activity Not available.
METAR KBUU 031335Z AUTO 24007KT 10SM CLR 23/20 A2994 RMK AO2 T02340200

10-Day Weather Forecast

×

Almanac

Astronomy

Sep. 03, 2015 Rise Set
Actual Time
Civil Twilight
Nautical Twilight
Astronomical Twilight
Moon
Length of Visible Light
Length of Day
Tomorrow will be .
, % of the Moon is Illuminated

Today's Extremes

State Highs State Lows

Community

WunderPhotos

Upload Photos

1,851,952 photos uploaded!

WunderBlogs® & News

Nearby

Air Quality

  Air Quality AQ Index Pollutant
Not available.

Snow Depth

Station Depth Elevation

Earthquake Activity

City Distance Mag. Time & Date
Minimum magnitude displayed is 2.5.

Coastal Water Temperatures

Place Temperature

Stations

Nearby Weather Stations

Station Location Temp. Windchill Dew Point Humidity Wind Precip. Elev Updated Type